Time;durP1;ratioP1;P1;durP2;ratioP2;P2;SDS_P1;SDS_P2;PMS_P1;PMS_P2;Temp;Humidity;BMP_temperature;BMP_pressure;BME280_temperature;BME280_humidity;BME280_pressure;Samples;Min_cycle;Max_cycle;Signal;HPM_P1;HPM_P2
2021/04/28 00:00:28;;;;;;;16.15;11.38;;;;;;;8.62;63.84;97360.12;1643301;84;21187;-78
2021/04/28 00:02:57;;;;;;;16.73;10.72;;;;;;;8.58;63.09;97354.09;1691655;84;21533;-77
2021/04/28 00:05:26;;;;;;;17.62;11.70;;;;;;;8.55;63.87;97348.89;1668428;86;21190;-78
2021/04/28 00:07:54;;;;;;;18.90;12.95;;;;;;;8.50;63.23;97350.34;1668545;86;21161;-78
2021/04/28 00:10:27;;;;;;;17.25;11.33;;;;;;;8.45;64.62;97350.50;1671756;85;21149;-78
2021/04/28 00:12:55;;;;;;;16.07;11.40;;;;;;;8.43;63.92;97358.06;1668983;84;21140;-78
2021/04/28 00:15:27;;;;;;;17.45;11.73;;;;;;;8.40;64.01;97356.39;1689101;84;21142;-77
2021/04/28 00:17:56;;;;;;;18.85;12.60;;;;;;;8.38;65.23;97359.98;1696981;84;21174;-77
2021/04/28 00:20:25;;;;;;;17.67;11.73;;;;;;;8.35;64.59;97363.55;1696870;84;21500;-78
2021/04/28 00:22:52;;;;;;;17.45;12.43;;;;;;;8.29;64.91;97363.31;1675774;84;21138;-78
2021/04/28 00:25:22;;;;;;;17.42;12.25;;;;;;;8.25;65.50;97362.11;1655376;84;21131;-78
2021/04/28 00:27:50;;;;;;;17.02;11.57;;;;;;;8.23;66.68;97367.91;1697093;84;21163;-78
2021/04/28 00:30:19;;;;;;;17.85;12.63;;;;;;;8.20;65.80;97378.11;1657805;85;21133;-78
2021/04/28 00:32:49;;;;;;;19.62;11.22;;;;;;;8.20;67.70;97376.78;1689163;85;21669;-78
2021/04/28 00:35:19;;;;;;;16.15;11.55;;;;;;;8.13;69.08;97384.02;1687499;84;21269;-78
2021/04/28 00:37:47;;;;;;;16.82;12.18;;;;;;;8.08;69.59;97377.13;1685534;84;21147;-78
2021/04/28 00:40:22;;;;;;;15.83;11.35;;;;;;;8.04;69.00;97376.37;1640869;86;21285;-77
2021/04/28 00:42:51;;;;;;;14.80;11.55;;;;;;;8.02;69.20;97379.52;1663745;86;21131;-78
2021/04/28 00:45:21;;;;;;;16.77;12.03;;;;;;;7.96;68.92;97389.78;1653634;86;21158;-78
2021/04/28 00:47:49;;;;;;;17.62;12.18;;;;;;;7.93;68.18;97396.02;1657670;84;21450;-78
2021/04/28 00:50:22;;;;;;;17.17;12.00;;;;;;;7.91;72.47;97396.97;1690176;84;21148;-77
2021/04/28 00:52:52;;;;;;;19.35;11.48;;;;;;;7.91;68.88;97393.02;1653065;86;21130;-77
2021/04/28 00:55:21;;;;;;;15.30;11.22;;;;;;;7.89;68.95;97400.97;1646745;86;21127;-78
2021/04/28 00:57:51;;;;;;;21.35;12.00;;;;;;;7.87;69.80;97390.05;1642470;86;21297;-78
2021/04/28 01:00:21;;;;;;;15.68;10.48;;;;;;;7.86;72.44;97401.52;1620224;88;21142;-77
2021/04/28 01:02:49;;;;;;;15.43;11.15;;;;;;;7.84;71.33;97399.39;1661519;84;21333;-78
2021/04/28 01:05:18;;;;;;;13.85;10.55;;;;;;;7.85;71.52;97407.70;1689535;85;21306;-77
2021/04/28 01:07:48;;;;;;;20.23;11.33;;;;;;;7.86;72.15;97406.34;1689609;85;21513;-78
2021/04/28 01:10:21;;;;;;;15.28;10.93;;;;;;;7.84;72.12;97400.23;1689364;85;21271;-78
2021/04/28 01:12:50;;;;;;;13.72;10.72;;;;;;;7.82;72.67;97407.34;1675410;85;21159;-78
2021/04/28 01:15:22;;;;;;;16.07;11.18;;;;;;;7.82;73.72;97407.34;1646118;86;21155;-78
2021/04/28 01:17:53;;;;;;;16.35;10.50;;;;;;;7.85;72.80;97407.70;1638519;86;21631;-78
2021/04/28 01:20:23;;;;;;;17.35;11.75;;;;;;;7.81;72.85;97402.98;1685184;84;21149;-78
2021/04/28 01:22:53;;;;;;;15.68;12.30;;;;;;;7.77;73.11;97402.64;1689526;85;21283;-78
2021/04/28 01:25:25;;;;;;;16.07;10.68;;;;;;;7.73;73.29;97405.80;1689779;85;21173;-77
2021/04/28 01:28:04;;;;;;;17.75;11.12;;;;;;;7.68;72.50;97407.70;1666106;85;21517;-77
2021/04/28 01:30:44;;;;;;;15.43;11.03;;;;;;;7.64;74.47;97407.40;1665986;86;21120;-76
2021/04/28 01:33:29;;;;;;;14.83;11.40;;;;;;;7.62;73.08;97413.16;1665976;86;21175;-76
2021/04/28 01:35:59;;;;;;;17.65;12.75;;;;;;;7.56;75.69;97407.58;1668451;86;21180;-77
2021/04/28 01:38:32;;;;;;;18.12;12.20;;;;;;;7.48;74.43;97405.15;1667781;84;21178;-77
2021/04/28 01:41:01;;;;;;;19.00;12.40;;;;;;;7.40;73.54;97401.40;1639063;88;21520;-78
2021/04/28 01:43:31;;;;;;;16.97;12.37;;;;;;;7.35;74.69;97400.66;1638985;88;21142;-77
2021/04/28 01:45:59;;;;;;;16.67;11.95;;;;;;;7.30;74.25;97392.48;1620523;88;21151;-77
2021/04/28 01:48:27;;;;;;;18.87;12.30;;;;;;;7.23;74.53;97399.67;1642670;86;21151;-77
2021/04/28 01:50:58;;;;;;;18.77;13.68;;;;;;;7.18;74.46;97392.34;1638914;86;21174;-78
2021/04/28 01:53:26;;;;;;;17.17;12.07;;;;;;;7.13;73.88;97390.69;1642233;87;21554;-78
2021/04/28 01:55:58;;;;;;;17.55;12.45;;;;;;;7.08;75.47;97395.20;1639106;88;21107;-77
2021/04/28 01:58:39;;;;;;;18.42;12.13;;;;;;;7.09;74.50;97390.34;1780451;79;22981;-78
2021/04/28 02:01:10;;;;;;;18.15;12.55;;;;;;;6.99;77.34;97394.11;1753400;82;21249;-78
2021/04/28 02:03:39;;;;;;;19.20;12.58;;;;;;;6.95;77.05;97386.75;1738953;82;21154;-78
2021/04/28 02:06:07;;;;;;;19.20;12.63;;;;;;;6.91;77.81;97396.94;1724735;83;21505;-77
2021/04/28 02:08:35;;;;;;;19.98;13.18;;;;;;;6.88;76.11;97397.00;1730145;82;21508;-76
2021/04/28 02:11:04;;;;;;;19.17;13.68;;;;;;;6.84;75.80;97399.30;1754620;81;21281;-75
2021/04/28 02:13:39;;;;;;;19.12;12.00;;;;;;;6.81;76.61;97401.55;1754526;82;21253;-77
2021/04/28 02:16:21;;;;;;;16.95;12.40;;;;;;;6.88;75.60;97383.83;1800226;79;27999;-77
2021/04/28 02:18:49;;;;;;;17.00;11.65;;;;;;;7.00;77.99;97385.30;1789169;80;21291;-77
2021/04/28 02:21:17;;;;;;;18.62;11.65;;;;;;;6.95;77.82;97390.70;1788594;80;21113;-77
2021/04/28 02:23:53;;;;;;;17.52;11.40;;;;;;;6.95;77.65;97384.11;1757836;80;21117;-78
2021/04/28 02:26:21;;;;;;;19.42;11.93;;;;;;;6.93;78.40;97381.10;1728651;82;21124;-77
2021/04/28 02:28:49;;;;;;;16.23;11.28;;;;;;;6.92;78.03;97378.91;1767937;80;21118;-78
2021/04/28 02:31:16;;;;;;;14.30;10.98;;;;;;;6.94;77.83;97383.67;1786098;80;21101;-78
2021/04/28 02:33:46;;;;;;;18.65;11.43;;;;;;;6.96;77.76;97385.84;1755299;80;21113;-79
2021/04/28 02:36:43;;;;;;;20.05;11.83;;;;;;;6.97;78.48;97384.05;1758197;81;21455;-78
2021/04/28 02:39:21;;;;;;;15.78;10.95;;;;;;;6.93;78.28;97391.17;1753756;82;21145;-78
2021/04/28 02:41:51;;;;;;;20.00;11.43;;;;;;;6.91;78.54;97393.43;1761522;79;21559;-79
2021/04/28 02:44:20;;;;;;;16.30;11.57;;;;;;;6.86;79.72;97387.81;1789305;80;21635;-80
2021/04/28 02:46:49;;;;;;;17.85;11.63;;;;;;;6.81;78.69;97380.48;1789187;79;21603;-78
2021/04/28 02:49:19;;;;;;;17.73;11.50;;;;;;;6.77;78.20;97377.50;1789258;80;21642;-78
2021/04/28 02:52:00;;;;;;;18.65;12.50;;;;;;;6.71;78.27;97385.56;1786229;80;21634;-79
2021/04/28 02:54:50;;;;;;;18.12;12.50;;;;;;;6.70;77.54;97383.83;1785512;80;21499;-78
2021/04/28 02:57:21;;;;;;;17.95;12.45;;;;;;;6.64;78.62;97399.31;1789206;80;21256;-78
2021/04/28 02:59:51;;;;;;;17.12;12.18;;;;;;;6.61;77.78;97395.46;1778162;80;21272;-78
2021/04/28 03:02:21;;;;;;;18.50;12.95;;;;;;;6.58;79.07;97387.62;1758108;82;21452;-78
2021/04/28 03:04:51;;;;;;;23.25;13.43;;;;;;;6.56;78.26;97386.80;1762374;80;21133;-79
2021/04/28 03:07:24;;;;;;;21.20;12.18;;;;;;;6.55;78.54;97394.26;1763991;80;21145;-78
2021/04/28 03:09:52;;;;;;;19.37;12.98;;;;;;;6.53;79.45;97393.45;1758208;82;21137;-78
2021/04/28 03:12:23;;;;;;;21.02;13.60;;;;;;;6.50;80.15;97389.55;1783998;80;21283;-78
2021/04/28 03:14:54;;;;;;;22.45;13.68;;;;;;;6.49;78.47;97400.55;1793843;79;21184;-78
2021/04/28 03:17:22;;;;;;;21.62;12.93;;;;;;;6.46;79.06;97400.17;1806230;79;21146;-78
2021/04/28 03:19:57;;;;;;;22.62;12.82;;;;;;;6.43;80.48;97407.25;1794038;79;21181;-78
2021/04/28 03:22:26;;;;;;;18.65;13.00;;;;;;;6.41;80.76;97409.06;1790046;79;21057;-78
2021/04/28 03:24:57;;;;;;;20.40;12.50;;;;;;;6.42;79.84;97410.35;1794949;79;21258;-78
2021/04/28 03:27:25;;;;;;;19.07;12.68;;;;;;;6.42;80.35;97413.42;1774359;81;21149;-78
2021/04/28 03:29:57;;;;;;;18.75;12.55;;;;;;;6.40;79.41;97408.19;1774162;81;21495;-78
2021/04/28 03:32:25;;;;;;;19.12;12.82;;;;;;;6.42;79.36;97410.79;1774396;81;21459;-78
2021/04/28 03:34:58;;;;;;;20.00;13.03;;;;;;;6.42;80.62;97410.79;1772496;81;21145;-78
2021/04/28 03:37:26;;;;;;;19.77;12.75;;;;;;;6.42;79.55;97409.03;1774231;81;21507;-78
2021/04/28 03:39:54;;;;;;;21.33;13.48;;;;;;;6.40;79.02;97415.23;1748280;81;21124;-77
2021/04/28 03:42:23;;;;;;;21.65;13.38;;;;;;;6.41;79.97;97415.64;1774460;79;21148;-78
2021/04/28 03:44:52;;;;;;;20.37;13.05;;;;;;;6.40;79.82;97416.55;1799025;79;21094;-78
2021/04/28 03:47:20;;;;;;;24.80;15.25;;;;;;;6.40;81.59;97413.45;1805971;79;21140;-78
2021/04/28 03:49:49;;;;;;;22.05;15.18;;;;;;;6.42;80.69;97417.37;1796007;79;21132;-78
2021/04/28 03:52:17;;;;;;;20.15;13.45;;;;;;;6.47;79.50;97424.71;1774278;81;21093;-78
2021/04/28 03:55:05;;;;;;;17.62;11.90;;;;;;;6.54;79.53;97428.08;1774316;81;21507;-78
2021/04/28 03:57:34;;;;;;;18.75;11.22;;;;;;;6.57;80.19;97428.02;1774215;81;21116;-78
2021/04/28 04:00:03;;;;;;;17.87;11.50;;;;;;;6.58;80.11;97427.11;1774248;81;21121;-78
2021/04/28 04:02:31;;;;;;;13.75;9.43;;;;;;;6.59;80.87;97426.20;1774258;81;21132;-77
2021/04/28 04:05:25;;;;;;;16.75;9.80;;;;;;;6.69;81.21;97422.92;1820768;79;22652;-78
2021/04/28 04:08:09;;;;;;;14.28;9.85;;;;;;;6.65;81.34;97419.95;1786010;80;21149;-78
2021/04/28 04:10:41;;;;;;;11.30;8.58;;;;;;;6.67;81.74;97428.66;1770625;80;21517;-78
2021/04/28 04:13:09;;;;;;;11.65;8.25;;;;;;;6.69;80.91;97433.45;1762982;81;21504;-78
2021/04/28 04:15:37;;;;;;;11.97;8.40;;;;;;;6.72;81.70;97433.37;1763054;81;21134;-78
2021/04/28 04:18:06;;;;;;;12.58;9.15;;;;;;;6.74;81.11;97439.48;1762819;81;21154;-78
2021/04/28 04:20:50;;;;;;;12.07;9.25;;;;;;;6.79;81.55;97434.09;1781348;79;22974;-78
2021/04/28 04:23:20;;;;;;;13.05;9.28;;;;;;;6.76;80.85;97436.35;1754071;82;21277;-78
2021/04/28 04:25:49;;;;;;;13.68;9.40;;;;;;;6.77;80.89;97438.55;1740039;82;21126;-77
2021/04/28 04:28:20;;;;;;;12.43;9.10;;;;;;;6.76;81.38;97441.62;1750389;82;21167;-79
2021/04/28 04:30:51;;;;;;;13.62;9.75;;;;;;;6.75;80.43;97429.36;1752531;82;21296;-79
2021/04/28 04:33:37;;;;;;;13.53;8.98;;;;;;;6.76;80.10;97432.87;1743217;82;21311;-79
2021/04/28 04:36:24;;;;;;;14.65;9.78;;;;;;;6.72;80.45;97439.52;1730839;82;21135;-78
2021/04/28 04:39:10;;;;;;;14.70;9.68;;;;;;;6.69;79.86;97447.47;1754591;82;21139;-78
2021/04/28 04:41:57;;;;;;;17.07;10.55;;;;;;;6.65;79.84;97452.86;1630692;87;21150;-78
2021/04/28 13:18:46;;;;;;;3.65;2.08;;;;;;;15.40;51.84;97279.77;1801800;79;21541;-80
2021/04/28 13:21:28;;;;;;;3.42;2.08;;;;;;;15.28;52.09;97284.03;1767849;80;21209;-77
2021/04/28 13:24:16;;;;;;;2.95;2.10;;;;;;;15.35;52.04;97283.19;1775414;80;21165;-78
2021/04/28 13:27:01;;;;;;;2.40;2.20;;;;;;;15.33;51.53;97276.22;1746625;80;21197;-78
2021/04/28 13:34:29;;;;;;;3.85;2.05;;;;;;;15.41;51.45;97261.45;1734436;79;49498;-83
2021/04/28 13:36:57;;;;;;;4.78;2.10;;;;;;;15.49;50.79;97261.47;1692355;84;21124;-79
2021/04/28 13:39:32;;;;;;;2.67;2.00;;;;;;;15.58;51.00;97266.25;1692380;85;21148;-80
2021/04/28 13:42:05;;;;;;;2.95;2.20;;;;;;;15.70;51.23;97269.48;1691908;84;21543;-81
2021/04/28 13:44:35;;;;;;;3.15;2.52;;;;;;;15.81;51.05;97262.13;1691193;85;21136;-80
2021/04/28 13:47:03;;;;;;;3.37;2.52;;;;;;;15.88;50.26;97251.92;1691909;83;21179;-80
2021/04/28 13:49:33;;;;;;;4.35;3.02;;;;;;;15.91;50.47;97257.05;1692226;84;21123;-80
2021/04/28 13:52:03;;;;;;;3.02;2.37;;;;;;;15.98;50.67;97257.56;1670528;85;21542;-80
2021/04/28 13:54:32;;;;;;;5.55;3.05;;;;;;;15.95;50.10;97260.45;1638839;87;21217;-81
2021/04/28 13:57:00;;;;;;;3.40;2.27;;;;;;;15.91;50.23;97255.72;1624860;87;21172;-80
2021/04/28 13:59:28;;;;;;;4.67;2.42;;;;;;;15.86;50.31;97255.65;1632145;87;21176;-81
2021/04/28 14:01:56;;;;;;;5.00;3.50;;;;;;;15.81;50.37;97245.23;1641023;87;21196;-80
2021/04/28 14:04:23;;;;;;;6.42;3.77;;;;;;;15.88;50.60;97245.24;1630276;87;21159;-80
2021/04/28 14:06:50;;;;;;;3.98;3.30;;;;;;;15.89;50.81;97244.28;1635004;87;21210;-80
2021/04/28 14:09:17;;;;;;;6.33;3.40;;;;;;;15.88;50.97;97243.91;1635993;87;21164;-80
2021/04/28 14:11:45;;;;;;;7.28;3.42;;;;;;;15.83;51.26;97246.85;1640408;87;21156;-80
2021/04/28 14:14:14;;;;;;;5.15;3.60;;;;;;;15.77;51.30;97246.38;1642254;87;21190;-79
2021/04/28 14:16:41;;;;;;;6.10;3.35;;;;;;;15.65;52.16;97247.53;1640770;87;21558;-80
2021/04/28 14:19:09;;;;;;;3.05;2.75;;;;;;;15.48;52.78;97244.58;1619174;87;21542;-82
2021/04/28 14:21:36;;;;;;;5.90;3.35;;;;;;;15.49;52.64;97250.79;1627631;87;21536;-82
2021/04/28 14:24:05;;;;;;;4.42;3.22;;;;;;;15.32;52.50;97252.66;1623679;88;21209;-82
2021/04/28 14:26:32;;;;;;;4.92;3.80;;;;;;;15.32;52.71;97252.66;1637372;87;21227;-82
2021/04/28 14:29:00;;;;;;;4.60;3.75;;;;;;;15.29;53.01;97243.53;1635843;87;21137;-82
2021/04/28 14:31:27;;;;;;;6.67;3.60;;;;;;;15.24;52.83;97244.28;1611756;87;21535;-81
2021/04/28 14:33:55;;;;;;;4.00;3.27;;;;;;;15.23;53.63;97234.56;1618469;87;21148;-80
2021/04/28 14:36:23;;;;;;;5.25;3.55;;;;;;;15.19;53.27;97237.88;1613265;89;21259;-80
2021/04/28 14:38:50;;;;;;;5.65;3.17;;;;;;;15.16;53.04;97233.58;1613217;89;21176;-80
2021/04/28 14:41:18;;;;;;;4.60;3.70;;;;;;;15.14;53.10;97236.83;1613538;89;21149;-81
2021/04/28 14:43:45;;;;;;;6.37;4.30;;;;;;;15.11;53.13;97235.67;1627065;87;21152;-80
2021/04/28 14:46:13;;;;;;;9.78;5.37;;;;;;;15.04;53.30;97237.84;1639421;87;21152;-79
2021/04/28 14:48:40;;;;;;;4.87;3.83;;;;;;;15.02;53.22;97231.75;1621820;87;21160;-75
2021/04/28 14:51:12;;;;;;;4.90;2.95;;;;;;;14.97;53.58;97230.30;1589500;89;21560;-84
2021/04/28 14:53:37;;;;;;;5.47;3.20;;;;;;;14.94;53.63;97229.17;1241056;87;9640325;-79
2021/04/28 14:56:05;;;;;;;5.05;4.00;;;;;;;14.88;53.58;97230.39;1585516;88;21705;-77
2021/04/28 14:58:42;;;;;;;4.55;2.90;;;;;;;14.87;54.60;97222.01;1594416;90;21241;-77
2021/04/28 15:01:10;;;;;;;5.90;3.40;;;;;;;14.86;54.05;97224.30;1594441;90;21189;-76
2021/04/28 15:03:42;;;;;;;4.77;3.43;;;;;;;14.85;53.90;97230.09;1578265;89;21251;-76
2021/04/28 15:06:11;;;;;;;9.10;3.20;;;;;;;14.72;54.30;97221.06;1573517;88;21633;-76
2021/04/28 15:08:40;;;;;;;7.00;3.62;;;;;;;14.64;54.42;97223.72;1594490;88;21251;-75
2021/04/28 15:11:10;;;;;;;4.55;3.08;;;;;;;14.69;54.30;97218.59;1594464;88;21191;-76
2021/04/28 15:13:39;;;;;;;4.25;2.90;;;;;;;14.85;54.52;97223.89;1592822;88;21617;-77
2021/04/28 15:16:06;;;;;;;6.25;3.60;;;;;;;15.28;54.36;97219.13;1593679;89;21266;-80
2021/04/28 15:18:34;;;;;;;6.37;3.90;;;;;;;15.63;53.79;97220.08;1594824;88;21163;-82
2021/04/28 15:21:02;;;;;;;4.58;4.00;;;;;;;15.80;53.49;97218.14;1595046;88;21258;-83
2021/04/28 15:23:33;;;;;;;4.53;3.90;;;;;;;15.99;53.34;97218.34;1580288;89;21232;-83
2021/04/28 15:26:01;;;;;;;5.58;4.15;;;;;;;16.07;53.13;97217.38;1579285;90;21186;-83
2021/04/28 15:28:28;;;;;;;5.40;4.67;;;;;;;16.13;52.86;97213.43;1596446;90;21282;-78
2021/04/28 15:30:55;;;;;;;5.92;4.60;;;;;;;16.18;52.77;97212.19;1580254;89;21173;-76
2021/04/28 15:33:23;;;;;;;7.20;4.78;;;;;;;16.10;52.63;97215.83;1589521;89;21261;-79
2021/04/28 15:35:51;;;;;;;8.48;4.53;;;;;;;16.04;52.37;97214.42;1585459;89;21198;-79
2021/04/28 15:41:00;;;;;;;6.25;3.90;;;;;;;15.95;52.60;97209.17;1799647;78;23415;-80
2021/04/28 15:43:32;;;;;;;7.12;4.25;;;;;;;15.79;52.86;97207.95;1784056;80;21166;-78
2021/04/28 15:46:05;;;;;;;8.48;4.58;;;;;;;15.73;53.38;97203.47;1785015;80;21118;-78
2021/04/28 15:48:43;;;;;;;4.62;4.15;;;;;;;15.71;53.49;97205.73;1762951;80;21266;-77
2021/04/28 15:51:11;;;;;;;7.75;5.00;;;;;;;15.74;53.50;97202.52;1779345;80;21445;-78
2021/04/28 15:53:40;;;;;;;5.03;3.85;;;;;;;15.74;53.82;97198.51;1794031;80;21099;-78
2021/04/28 15:56:09;;;;;;;6.92;4.20;;;;;;;15.74;54.22;97202.52;1793264;80;21111;-77
2021/04/28 15:58:36;;;;;;;5.83;4.97;;;;;;;15.63;54.36;97197.84;1738924;81;21170;-78
2021/04/28 16:01:07;;;;;;;8.05;4.62;;;;;;;15.42;54.90;97197.77;1717762;82;21166;-78
2021/04/28 16:03:36;;;;;;;4.95;4.12;;;;;;;15.21;54.60;97197.75;1705284;83;21154;-78
2021/04/28 16:06:04;;;;;;;5.10;4.17;;;;;;;15.15;55.00;97193.64;1691722;83;21489;-78
2021/04/28 16:08:31;;;;;;;6.50;4.10;;;;;;;15.08;55.32;97193.18;1729574;82;21513;-77
2021/04/28 16:10:59;;;;;;;7.95;4.87;;;;;;;14.99;54.70;97196.41;1713782;83;21130;-77
2021/04/28 16:13:26;;;;;;;6.22;4.53;;;;;;;14.83;56.07;97197.33;1711229;83;21301;-77
2021/04/28 16:15:54;;;;;;;5.87;4.60;;;;;;;14.82;55.29;97198.26;1709692;83;21154;-76
2021/04/28 16:18:21;;;;;;;6.33;4.47;;;;;;;14.80;55.35;97194.84;1708098;83;21173;-77
2021/04/28 16:20:49;;;;;;;7.37;4.80;;;;;;;14.75;55.42;97192.42;1709055;83;21183;-78
2021/04/28 16:23:16;;;;;;;7.87;5.10;;;;;;;14.71;55.65;97191.34;1710161;83;21167;-78
2021/04/28 16:25:44;;;;;;;6.87;4.95;;;;;;;14.72;56.77;97189.06;1716743;83;21143;-78
2021/04/28 16:28:11;;;;;;;5.67;4.45;;;;;;;14.68;56.90;97186.19;1713574;82;21533;-78
2021/04/28 16:30:39;;;;;;;5.12;4.55;;;;;;;14.61;56.27;97189.69;1714933;83;21191;-77
2021/04/28 16:33:06;;;;;;;8.35;4.83;;;;;;;14.53;57.41;97191.47;1712880;82;21146;-78
2021/04/28 16:35:34;;;;;;;8.20;6.35;;;;;;;14.44;56.85;97185.34;1715880;82;21150;-78
2021/04/28 16:38:04;;;;;;;6.55;4.95;;;;;;;14.38;57.71;97178.59;1714929;82;21133;-77
2021/04/28 16:40:35;;;;;;;5.25;4.70;;;;;;;14.33;57.37;97176.66;1698081;84;21135;-77
2021/04/28 16:43:02;;;;;;;6.00;4.65;;;;;;;14.25;57.74;97173.95;1751321;81;21629;-77
2021/04/28 16:45:43;;;;;;;24.15;22.20;;;;;;;14.16;58.59;97186.47;1748810;82;21528;-77
2021/04/28 16:48:14;;;;;;;12.98;11.85;;;;;;;14.07;58.16;97185.69;1759484;81;21496;-77
2021/04/28 16:50:41;;;;;;;6.20;5.45;;;;;;;14.04;58.68;97188.52;1757901;81;21486;-77
2021/04/28 16:53:09;;;;;;;5.37;4.42;;;;;;;14.04;58.49;97181.86;1720164;82;21522;-77
2021/04/28 16:55:36;;;;;;;8.65;4.67;;;;;;;14.00;59.84;97182.52;1740711;82;21516;-78
2021/04/28 16:58:04;;;;;;;7.85;4.53;;;;;;;13.93;59.69;97183.79;1750356;81;21107;-77
2021/04/28 17:00:32;;;;;;;6.92;4.87;;;;;;;13.89;59.17;97183.11;1740981;82;21168;-77
2021/04/28 17:02:59;;;;;;;6.25;4.05;;;;;;;13.84;59.46;97191.83;1779635;81;21146;-76
2021/04/28 17:05:27;;;;;;;5.25;4.75;;;;;;;13.80;59.77;97201.80;1743108;82;21287;-77
2021/04/28 17:07:54;;;;;;;6.17;4.70;;;;;;;13.80;59.32;97195.61;1780191;81;21158;-77
2021/04/28 17:10:24;;;;;;;6.62;5.17;;;;;;;13.77;59.64;97187.31;1721185;82;21132;-77
2021/04/28 17:12:53;;;;;;;6.45;5.00;;;;;;;13.73;60.02;97179.98;1728129;82;21501;-77
2021/04/28 17:15:21;;;;;;;5.70;4.83;;;;;;;13.69;61.11;97183.75;1749245;82;21142;-76
2021/04/28 17:17:48;;;;;;;7.28;5.00;;;;;;;13.65;60.39;97190.64;1749218;82;21500;-77
2021/04/28 17:20:17;;;;;;;7.85;5.00;;;;;;;13.57;61.12;97193.27;1749307;82;22125;-77
2021/04/28 17:22:45;;;;;;;17.30;12.78;;;;;;;13.51;60.63;97190.95;1749138;82;21484;-76
2021/04/28 17:25:15;;;;;;;8.15;6.12;;;;;;;13.45;60.65;97189.44;1749090;81;21145;-77
2021/04/28 17:27:42;;;;;;;6.22;5.12;;;;;;;13.38;61.42;97185.41;1749282;82;21116;-76
2021/04/28 17:30:14;;;;;;;6.08;5.17;;;;;;;13.31;61.38;97186.66;1746913;81;21143;-76
2021/04/28 17:32:44;;;;;;;7.15;4.87;;;;;;;13.27;60.95;97190.42;1778263;81;21132;-77
2021/04/28 17:35:13;;;;;;;6.30;4.87;;;;;;;13.22;61.32;97197.80;1742955;82;21154;-77
2021/04/28 17:37:40;;;;;;;6.95;5.35;;;;;;;13.16;61.88;97199.00;1779916;81;21556;-77
2021/04/28 17:40:09;;;;;;;10.48;5.25;;;;;;;13.09;62.24;97197.14;1779871;81;21135;-76
2021/04/28 17:42:36;;;;;;;7.67;5.47;;;;;;;13.04;62.43;97195.19;1752365;80;21118;-77
2021/04/28 17:45:08;;;;;;;7.22;5.53;;;;;;;12.96;62.39;97184.95;1748989;82;21131;-76
2021/04/28 17:47:41;;;;;;;8.45;6.83;;;;;;;12.90;62.98;97195.89;1749663;82;21133;-76
2021/04/28 17:50:10;;;;;;;7.50;5.40;;;;;;;12.85;62.41;97197.93;1749288;82;21495;-76
2021/04/28 17:52:38;;;;;;;8.78;6.53;;;;;;;12.78;62.78;97192.94;1749264;82;21168;-76
2021/04/28 17:55:07;;;;;;;6.80;5.33;;;;;;;12.74;63.04;97195.36;1751314;81;21483;-76
2021/04/28 17:57:37;;;;;;;7.05;5.25;;;;;;;12.68;63.27;97198.34;1748072;82;21116;-79
2021/04/28 18:00:06;;;;;;;7.20;5.65;;;;;;;12.64;63.28;97193.66;1749396;82;21137;-77
2021/04/28 18:02:36;;;;;;;7.15;5.67;;;;;;;12.61;63.44;97198.24;1748486;82;21132;-77
2021/04/28 18:05:05;;;;;;;8.15;5.67;;;;;;;12.54;63.46;97192.38;1742732;81;21132;-77
2021/04/28 18:07:35;;;;;;;7.30;5.50;;;;;;;12.49;63.75;97194.41;1741550;81;21123;-77
2021/04/28 18:10:05;;;;;;;10.05;5.72;;;;;;;12.45;64.08;97190.20;1749129;82;21177;-77
2021/04/28 18:12:32;;;;;;;5.83;5.05;;;;;;;12.41;64.08;97188.15;1749392;82;21510;-77
2021/04/28 18:15:00;;;;;;;9.30;5.58;;;;;;;12.39;64.04;97194.02;1772531;81;21486;-77
2021/04/28 18:17:27;;;;;;;10.30;7.20;;;;;;;12.37;64.78;97190.59;1780165;81;21096;-77
2021/04/28 18:19:56;;;;;;;9.78;6.53;;;;;;;12.33;64.30;97193.84;1779892;81;21100;-77
2021/04/28 18:22:26;;;;;;;8.93;6.50;;;;;;;12.30;64.52;97195.80;1779978;81;21136;-76
2021/04/28 18:24:53;;;;;;;13.32;7.62;;;;;;;12.27;64.99;97207.45;1775419;81;21471;-76
2021/04/28 18:27:21;;;;;;;8.98;6.87;;;;;;;12.25;64.67;97207.52;1774969;81;21147;-76
2021/04/28 18:29:49;;;;;;;6.97;5.78;;;;;;;12.22;65.08;97206.36;1735650;82;21113;-76
2021/04/28 18:32:16;;;;;;;10.25;6.55;;;;;;;12.16;65.29;97214.60;1735539;82;21140;-77
2021/04/28 18:34:44;;;;;;;9.25;6.65;;;;;;;12.12;65.40;97219.20;1758512;81;21128;-77
2021/04/28 18:37:12;;;;;;;8.65;6.25;;;;;;;12.07;65.93;97221.69;1749197;82;21125;-76
2021/04/28 18:39:41;;;;;;;9.68;6.75;;;;;;;12.01;66.12;97208.22;1750507;81;21136;-76
2021/04/28 18:42:09;;;;;;;10.63;7.17;;;;;;;12.00;66.34;97217.13;1762425;81;21151;-77
2021/04/28 18:44:37;;;;;;;8.98;6.42;;;;;;;11.95;66.13;97221.31;1762684;80;21501;-76
2021/04/28 18:47:05;;;;;;;12.03;7.67;;;;;;;11.90;66.44;97211.38;1762570;81;21111;-76
2021/04/28 18:49:33;;;;;;;12.68;7.85;;;;;;;11.86;66.19;97217.31;1762452;81;21167;-76
2021/04/28 18:52:00;;;;;;;13.48;8.05;;;;;;;11.81;66.70;97219.33;1762631;81;21216;-77
2021/04/28 18:54:29;;;;;;;12.37;8.45;;;;;;;11.76;66.48;97221.34;1778101;80;21114;-77
2021/04/28 18:56:57;;;;;;;12.20;8.30;;;;;;;11.70;66.83;97219.82;1764542;80;21107;-76
2021/04/28 18:59:27;;;;;;;13.98;9.35;;;;;;;11.67;67.13;97216.45;1756312;82;21178;-76
2021/04/28 19:01:55;;;;;;;17.73;10.15;;;;;;;11.67;67.23;97211.14;1726411;83;21117;-76
2021/04/28 19:04:23;;;;;;;13.55;9.08;;;;;;;11.62;67.56;97212.22;1725514;83;21492;-76
2021/04/28 19:06:51;;;;;;;16.82;8.75;;;;;;;11.59;67.72;97212.84;1726423;83;21171;-76
2021/04/28 19:09:18;;;;;;;21.90;14.13;;;;;;;11.58;68.74;97217.72;1726235;83;21180;-76
2021/04/28 19:11:46;;;;;;;19.00;13.20;;;;;;;11.57;68.55;97218.66;1726355;83;21179;-77
2021/04/28 19:14:14;;;;;;;14.00;9.63;;;;;;;11.58;69.04;97213.74;1715904;83;21134;-77
2021/04/28 19:16:42;;;;;;;15.05;9.20;;;;;;;11.57;69.25;97223.97;1726433;82;21233;-77
2021/04/28 19:19:12;;;;;;;19.87;9.68;;;;;;;11.60;69.98;97226.04;1726328;83;21151;-77
2021/04/28 19:21:39;;;;;;;13.00;9.30;;;;;;;11.64;70.87;97223.22;1697407;84;21138;-77
2021/04/28 19:24:08;;;;;;;17.37;9.70;;;;;;;11.70;70.73;97220.27;1726233;83;21146;-77
2021/04/28 19:26:35;;;;;;;15.20;9.33;;;;;;;11.74;70.12;97221.41;1742408;82;21123;-77
2021/04/28 19:29:04;;;;;;;14.18;9.28;;;;;;;11.78;70.46;97218.58;1752676;82;21205;-74
2021/04/28 19:31:32;;;;;;;16.65;10.35;;;;;;;11.80;70.50;97214.95;1744937;82;21131;-80
2021/04/28 19:34:07;;;;;;;17.57;11.30;;;;;;;11.83;70.34;97208.16;1726112;83;21169;-79
2021/04/28 19:36:34;;;;;;;20.37;12.00;;;;;;;11.86;70.22;97210.67;1728100;82;21159;-79
2021/04/28 19:39:05;;;;;;;16.60;10.60;;;;;;;11.87;70.41;97213.72;1749601;82;21497;-85
2021/04/28 19:41:34;;;;;;;21.02;11.83;;;;;;;11.91;70.28;97210.44;1727198;82;21170;-81
2021/04/28 19:44:04;;;;;;;17.50;12.20;;;;;;;11.92;69.90;97216.14;1703290;82;21119;-78
2021/04/28 19:46:34;;;;;;;18.30;12.07;;;;;;;11.91;70.78;97218.41;1741979;80;21188;-80
2021/04/28 19:49:03;;;;;;;21.45;12.07;;;;;;;11.93;70.39;97215.69;1726233;82;21514;-79
2021/04/28 19:51:31;;;;;;;18.57;12.07;;;;;;;11.92;70.23;97213.48;1753469;82;21097;-79
2021/04/28 19:54:00;;;;;;;16.90;11.80;;;;;;;11.90;71.55;97211.38;1745563;81;21257;-80
2021/04/28 19:56:28;;;;;;;16.32;11.85;;;;;;;11.87;70.54;97213.72;1733599;82;21128;-80
2021/04/28 19:58:56;;;;;;;20.27;11.40;;;;;;;11.85;70.55;97207.63;1736129;80;21105;-80
2021/04/28 20:01:24;;;;;;;15.20;11.33;;;;;;;11.84;70.46;97205.05;1742326;82;21172;-80
2021/04/28 20:03:53;;;;;;;18.77;12.28;;;;;;;11.83;70.21;97204.66;1680911;85;21142;-81
2021/04/28 20:06:21;;;;;;;16.02;11.48;;;;;;;11.80;70.65;97206.99;1732599;82;21171;-80
2021/04/28 20:08:48;;;;;;;15.75;11.30;;;;;;;11.77;70.70;97202.27;1724597;83;21182;-79
2021/04/28 20:11:17;;;;;;;16.75;11.75;;;;;;;11.75;71.20;97203.66;1724643;83;21152;-80
2021/04/28 20:13:44;;;;;;;18.70;11.73;;;;;;;11.67;72.85;97209.82;1724407;83;21143;-79
2021/04/28 20:16:11;;;;;;;17.20;11.63;;;;;;;11.62;71.73;97214.88;1724692;82;21522;-80
2021/04/28 20:18:39;;;;;;;18.05;12.18;;;;;;;11.60;71.42;97211.44;1726636;82;21144;-79
2021/04/28 20:21:06;;;;;;;17.17;11.68;;;;;;;11.56;71.49;97206.33;1741711;80;21116;-82
2021/04/28 20:23:36;;;;;;;19.42;12.28;;;;;;;11.52;71.22;97204.74;1745287;82;21119;-80